createdAt,value
2019-03-22T00:00:11.171Z,28.50
2019-03-22T00:02:39.480Z,28.75
2019-03-22T00:05:07.940Z,30.23
2019-03-22T00:07:36.332Z,29.32
2019-03-22T00:10:05.914Z,29.67
2019-03-22T00:12:34.321Z,29.05
2019-03-22T00:15:03.515Z,29.60
2019-03-22T00:17:31.935Z,30.17
2019-03-22T00:20:00.397Z,29.37
2019-03-22T00:22:28.801Z,28.17
2019-03-22T00:24:57.367Z,29.45
2019-03-22T00:27:26.089Z,31.42
2019-03-22T00:29:54.766Z,30.60
2019-03-22T00:32:23.384Z,28.27
2019-03-22T00:34:51.850Z,28.30
2019-03-22T00:37:20.264Z,28.90
2019-03-22T00:39:48.564Z,28.67
2019-03-22T00:42:17.012Z,28.60
2019-03-22T00:44:45.904Z,27.95
2019-03-22T00:47:14.341Z,27.90
2019-03-22T00:49:42.645Z,26.20
2019-03-22T00:52:11.144Z,28.10
2019-03-22T00:54:39.590Z,26.37
2019-03-22T00:57:08.328Z,28.35
2019-03-22T00:59:36.965Z,26.57
2019-03-22T01:02:05.305Z,26.55
2019-03-22T01:04:33.776Z,27.85
2019-03-22T01:07:02.061Z,26.97
2019-03-22T01:09:30.400Z,26.35
2019-03-22T01:11:59.359Z,27.32
2019-03-22T01:14:27.913Z,27.02
2019-03-22T01:16:56.532Z,27.48
2019-03-22T01:19:25.030Z,27.20
2019-03-22T01:21:53.946Z,27.42
2019-03-22T01:24:22.718Z,27.60
2019-03-22T01:26:51.217Z,26.27
2019-03-22T01:29:19.803Z,26.57
2019-03-22T01:31:48.454Z,26.82
2019-03-22T01:34:17.178Z,26.05
2019-03-22T01:36:45.818Z,25.82
2019-03-22T01:39:18.503Z,25.80
2019-03-22T01:41:47.072Z,26.40
2019-03-22T01:44:15.586Z,26.48
2019-03-22T01:46:45.174Z,24.63
2019-03-22T01:49:13.817Z,25.77
2019-03-22T01:51:42.643Z,25.27
2019-03-22T01:54:11.194Z,23.87
2019-03-22T01:56:39.593Z,26.60
2019-03-22T01:59:08.182Z,26.07
2019-03-22T02:01:36.903Z,24.70
2019-03-22T02:04:05.210Z,24.50
2019-03-22T02:06:33.483Z,24.15
2019-03-22T02:09:01.795Z,25.15
2019-03-22T02:11:30.220Z,23.98
2019-03-22T02:13:58.538Z,23.77
2019-03-22T02:16:34.177Z,24.02
2019-03-22T02:19:03.271Z,24.23
2019-03-22T02:21:31.997Z,23.57
2019-03-22T02:24:00.464Z,23.60
2019-03-22T02:26:28.759Z,22.77
2019-03-22T02:28:57.134Z,23.60
2019-03-22T02:31:25.664Z,23.18
2019-03-22T02:33:54.117Z,24.30
2019-03-22T02:36:22.576Z,23.70
2019-03-22T02:38:50.967Z,22.95
2019-03-22T02:41:21.214Z,23.32
2019-03-22T02:43:49.760Z,22.17
2019-03-22T02:46:18.168Z,23.20
2019-03-22T02:48:46.578Z,21.97
2019-03-22T02:51:15.057Z,23.10
2019-03-22T02:53:43.503Z,23.27
2019-03-22T02:56:11.932Z,22.52
2019-03-22T02:58:40.400Z,20.95
2019-03-22T03:01:08.882Z,22.67
2019-03-22T03:03:37.446Z,22.75
2019-03-22T03:06:05.917Z,23.05
2019-03-22T03:08:34.415Z,21.50
2019-03-22T03:11:02.840Z,23.87
2019-03-22T03:13:31.204Z,21.15
2019-03-22T03:15:59.563Z,21.77
2019-03-22T03:18:28.111Z,23.55
2019-03-22T03:20:56.605Z,22.22
2019-03-22T03:23:24.967Z,21.40
2019-03-22T03:25:53.431Z,21.20
2019-03-22T03:28:36.006Z,22.02
2019-03-22T03:30:51.986Z,20.80
2019-03-22T03:33:20.347Z,20.62
2019-03-22T03:35:52.605Z,21.50
2019-03-22T03:38:20.948Z,19.40
2019-03-22T03:40:49.332Z,21.25
2019-03-22T03:43:17.628Z,20.60
2019-03-22T03:45:46.047Z,21.50
2019-03-22T03:48:14.655Z,20.55
2019-03-22T03:50:42.960Z,20.65
2019-03-22T03:53:11.426Z,21.12
2019-03-22T03:55:42.814Z,20.72
2019-03-22T03:58:11.250Z,20.85
2019-03-22T04:00:40.068Z,21.97
2019-03-22T04:03:08.762Z,20.80
2019-03-22T04:05:37.132Z,20.37
2019-03-22T04:08:05.449Z,20.90
2019-03-22T04:10:33.882Z,20.57
2019-03-22T04:13:04.079Z,21.75
2019-03-22T04:15:32.834Z,22.27
2019-03-22T04:18:02.916Z,20.20
2019-03-22T04:20:34.246Z,21.30
2019-03-22T04:23:02.606Z,20.68
2019-03-22T04:25:42.743Z,20.77
2019-03-22T04:28:10.815Z,21.23
2019-03-22T04:30:39.267Z,20.43
2019-03-22T04:33:07.623Z,21.95
2019-03-22T04:35:35.901Z,20.20
2019-03-22T04:38:04.784Z,21.52
2019-03-22T04:40:33.157Z,20.70
2019-03-22T04:43:01.684Z,22.25
2019-03-22T04:45:30.929Z,21.50
2019-03-22T04:48:05.535Z,21.75
2019-03-22T04:50:35.489Z,21.45
2019-03-22T04:53:21.869Z,21.15
2019-03-22T04:55:53.753Z,20.75
2019-03-22T04:58:22.142Z,22.70
2019-03-22T05:00:50.517Z,21.07
2019-03-22T05:03:22.503Z,19.50
2019-03-22T05:05:50.808Z,21.20
2019-03-22T05:08:19.113Z,21.12
2019-03-22T05:10:47.481Z,21.48
2019-03-22T05:13:15.946Z,21.37
2019-03-22T05:15:44.482Z,20.40
2019-03-22T05:18:13.134Z,20.97
2019-03-22T05:20:42.071Z,20.97
2019-03-22T05:23:10.454Z,20.80
2019-03-22T05:25:38.797Z,22.52
2019-03-22T05:28:07.626Z,22.77
2019-03-22T05:31:02.209Z,22.32
2019-03-22T05:33:30.588Z,21.48
2019-03-22T05:35:58.949Z,20.43
2019-03-22T05:38:28.943Z,23.47
2019-03-22T05:43:25.188Z,20.62
2019-03-22T05:45:53.873Z,20.97
2019-03-22T05:48:22.265Z,21.52
2019-03-22T05:50:50.690Z,21.93
2019-03-22T05:53:19.230Z,21.25
2019-03-22T05:55:47.604Z,22.02
2019-03-22T05:58:15.995Z,21.62
2019-03-22T06:00:44.298Z,23.22
2019-03-22T06:03:12.682Z,22.60
2019-03-22T06:05:41.057Z,22.98
2019-03-22T06:08:09.546Z,23.62
2019-03-22T06:10:37.915Z,22.42
2019-03-22T06:13:06.328Z,22.25
2019-03-22T06:15:34.891Z,22.35
2019-03-22T06:18:03.396Z,20.00
2019-03-22T06:20:32.247Z,21.07
2019-03-22T06:23:00.598Z,22.42
2019-03-22T06:25:28.949Z,19.20
2019-03-22T06:27:57.493Z,22.60
2019-03-22T06:30:26.761Z,22.07
2019-03-22T06:32:55.683Z,19.85
2019-03-22T06:35:24.371Z,19.62
2019-03-22T06:37:52.719Z,19.50
2019-03-22T06:40:21.213Z,20.17
2019-03-22T06:42:49.522Z,19.90
2019-03-22T06:45:18.924Z,19.73
2019-03-22T06:47:47.314Z,19.48
2019-03-22T06:50:15.837Z,19.37
2019-03-22T06:52:44.366Z,19.00
2019-03-22T06:55:12.739Z,18.73
2019-03-22T06:57:43.398Z,19.37
2019-03-22T07:00:13.088Z,19.15
2019-03-22T07:02:41.802Z,19.10
2019-03-22T07:05:13.721Z,19.05
2019-03-22T07:07:42.438Z,20.52
2019-03-22T07:10:11.430Z,22.05
2019-03-22T07:12:40.282Z,21.93
2019-03-22T07:15:08.730Z,21.15
2019-03-22T07:17:37.243Z,23.30
2019-03-22T07:20:08.856Z,22.60
2019-03-22T07:22:37.602Z,22.02
2019-03-22T07:25:06.799Z,22.45
2019-03-22T07:27:37.586Z,22.23
2019-03-22T07:30:18.814Z,23.35
2019-03-22T07:32:44.669Z,23.05
2019-03-22T07:35:13.395Z,22.60
2019-03-22T07:37:41.715Z,22.62
2019-03-22T07:40:11.649Z,22.67
2019-03-22T07:42:40.270Z,22.65
2019-03-22T07:45:09.784Z,22.30
2019-03-22T07:47:38.091Z,24.27
2019-03-22T07:50:12.972Z,21.85
2019-03-22T07:52:41.482Z,22.40
2019-03-22T07:55:09.906Z,24.60
2019-03-22T07:57:40.998Z,24.72
2019-03-22T08:00:13.033Z,23.32
2019-03-22T08:02:41.809Z,24.35
2019-03-22T08:05:10.351Z,24.40
2019-03-22T08:07:38.836Z,25.48
2019-03-22T08:10:08.382Z,24.25
2019-03-22T08:12:37.019Z,25.95
2019-03-22T08:15:08.226Z,25.00
2019-03-22T08:17:36.097Z,25.60
2019-03-22T08:20:06.365Z,26.70
2019-03-22T08:22:35.306Z,26.40
2019-03-22T08:25:03.895Z,27.45
2019-03-22T08:27:32.244Z,27.13
2019-03-22T08:30:00.586Z,27.37
2019-03-22T08:32:28.888Z,27.73
2019-03-22T08:34:57.204Z,27.50
2019-03-22T08:37:25.580Z,26.85
2019-03-22T08:39:55.937Z,27.30
2019-03-22T08:42:24.181Z,27.50
2019-03-22T08:44:52.936Z,27.50
2019-03-22T08:47:33.165Z,28.85
2019-03-22T08:49:51.778Z,29.15
2019-03-22T08:52:20.465Z,29.18
2019-03-22T08:54:48.904Z,27.95
2019-03-22T08:57:17.316Z,28.20
2019-03-22T08:59:46.762Z,29.02
2019-03-22T09:02:15.240Z,30.85
2019-03-22T09:04:43.820Z,29.32
2019-03-22T09:07:12.707Z,28.50
2019-03-22T09:09:41.990Z,27.75
2019-03-22T09:12:10.726Z,28.57
2019-03-22T09:14:39.316Z,30.17
2019-03-22T09:17:08.022Z,29.72
2019-03-22T09:19:36.386Z,30.10
2019-03-22T09:22:05.281Z,30.50
2019-03-22T09:24:39.434Z,31.50
2019-03-22T09:27:06.621Z,33.70
2019-03-22T09:29:35.134Z,33.02
2019-03-22T09:32:03.554Z,33.02
2019-03-22T09:34:33.973Z,38.88
2019-03-22T09:39:29.714Z,36.33
2019-03-22T09:41:58.266Z,37.83
2019-03-22T09:44:28.194Z,37.85
2019-03-22T09:46:56.968Z,38.63
2019-03-22T09:49:25.349Z,37.53
2019-03-22T09:51:55.216Z,37.58
2019-03-22T09:56:51.658Z,39.20
2019-03-22T09:59:20.045Z,41.50
2019-03-22T10:01:49.252Z,45.23
2019-03-22T10:04:18.170Z,46.40
2019-03-22T10:06:46.818Z,47.88
2019-03-22T10:09:15.412Z,48.58
2019-03-22T10:11:43.870Z,51.08
2019-03-22T10:14:12.385Z,51.73
2019-03-22T10:16:40.772Z,52.83
2019-03-22T10:19:09.139Z,52.58
2019-03-22T10:21:37.891Z,54.10
2019-03-22T10:24:06.391Z,54.88
2019-03-22T10:26:34.875Z,53.40
2019-03-22T10:29:03.618Z,56.45
2019-03-22T10:34:02.878Z,58.05
2019-03-22T10:36:31.401Z,57.27
2019-03-22T10:38:59.783Z,55.23
2019-03-22T10:41:28.279Z,55.67
2019-03-22T10:43:56.628Z,56.60
2019-03-22T10:46:25.095Z,55.80
2019-03-22T10:48:54.156Z,55.33
2019-03-22T10:51:22.827Z,55.75
2019-03-22T10:53:52.212Z,57.78
2019-03-22T10:56:21.017Z,58.63
2019-03-22T10:58:49.575Z,53.70
2019-03-22T11:01:17.855Z,55.90
2019-03-22T11:03:47.113Z,56.35
2019-03-22T11:06:25.517Z,56.90
2019-03-22T11:11:13.984Z,56.25
2019-03-22T11:13:42.494Z,53.02
2019-03-22T11:16:10.848Z,52.67
2019-03-22T11:18:39.285Z,51.90
2019-03-22T11:21:07.872Z,49.13
2019-03-22T11:23:36.330Z,52.15
2019-03-22T11:26:05.057Z,51.23
2019-03-22T11:28:33.522Z,63.33
2019-03-22T11:31:05.021Z,52.65
2019-03-22T11:35:59.445Z,50.10
2019-03-22T11:38:27.807Z,54.03
2019-03-22T11:40:56.328Z,49.77
2019-03-22T11:43:26.422Z,50.78
2019-03-22T11:48:22.624Z,38.30
2019-03-22T11:50:50.915Z,39.65
2019-03-22T11:53:19.245Z,45.15
2019-03-22T11:55:47.551Z,44.25
2019-03-22T11:58:15.927Z,45.80
2019-03-22T12:00:44.372Z,43.78
2019-03-22T12:03:12.769Z,40.50
2019-03-22T12:05:41.957Z,42.80
2019-03-22T12:08:10.284Z,47.97
2019-03-22T12:10:38.629Z,47.10
2019-03-22T12:13:07.352Z,44.67
2019-03-22T12:15:35.630Z,46.50
2019-03-22T12:18:04.519Z,48.63
2019-03-22T12:20:33.085Z,50.03
2019-03-22T12:23:01.525Z,48.87
2019-03-22T12:25:29.937Z,50.65
2019-03-22T12:27:58.451Z,49.60
2019-03-22T12:30:26.882Z,46.23
2019-03-22T12:32:56.001Z,42.45
2019-03-22T12:35:26.038Z,44.87
2019-03-22T12:40:23.258Z,44.98
2019-03-22T12:42:51.824Z,45.77
2019-03-22T12:45:27.524Z,47.15
2019-03-22T12:47:56.088Z,45.90
2019-03-22T12:50:24.461Z,45.23
2019-03-22T12:52:52.844Z,45.20
2019-03-22T12:55:21.363Z,44.35
2019-03-22T12:57:49.752Z,47.88
2019-03-22T13:00:21.335Z,48.15
2019-03-22T13:02:50.016Z,46.00
2019-03-22T13:05:19.011Z,46.60
2019-03-22T13:07:48.313Z,47.10
2019-03-22T13:10:19.940Z,46.30
2019-03-22T13:12:48.296Z,44.45
2019-03-22T13:15:16.618Z,44.42
2019-03-22T13:17:45.179Z,46.10
2019-03-22T13:20:15.729Z,45.33
2019-03-22T13:22:44.629Z,47.48
2019-03-22T13:25:14.353Z,49.38
2019-03-22T13:27:42.772Z,47.70
2019-03-22T13:30:35.063Z,45.60
2019-03-22T13:33:03.732Z,46.90
2019-03-22T13:35:32.054Z,48.78
2019-03-22T13:38:00.411Z,47.33
2019-03-22T13:40:28.995Z,47.08
2019-03-22T13:42:57.394Z,47.30
2019-03-22T13:45:25.945Z,43.15
2019-03-22T13:47:54.665Z,45.12
2019-03-22T13:50:23.167Z,41.00
2019-03-22T13:52:51.680Z,43.90
2019-03-22T13:55:20.199Z,44.60
2019-03-22T13:57:48.467Z,44.40
2019-03-22T14:00:17.650Z,45.15
2019-03-22T14:02:46.173Z,44.43
2019-03-22T14:05:14.717Z,44.50
2019-03-22T14:07:43.449Z,44.42
2019-03-22T14:10:33.995Z,43.35
2019-03-22T14:13:03.488Z,46.20
2019-03-22T14:15:32.086Z,44.35
2019-03-22T14:18:00.739Z,46.33
2019-03-22T14:20:29.664Z,45.83
2019-03-22T14:23:00.128Z,44.15
2019-03-22T14:25:28.540Z,43.92
2019-03-22T14:27:56.915Z,45.67
2019-03-22T14:30:25.243Z,44.75
2019-03-22T14:32:54.210Z,42.65
2019-03-22T14:35:22.567Z,43.92
2019-03-22T14:37:50.865Z,46.08
2019-03-22T14:40:21.728Z,43.50
2019-03-22T14:42:50.954Z,44.35
2019-03-22T14:45:19.259Z,42.30
2019-03-22T14:47:47.890Z,43.15
2019-03-22T14:50:16.428Z,42.25
2019-03-22T14:52:46.214Z,45.90
2019-03-22T14:55:14.632Z,44.08
2019-03-22T14:57:48.696Z,43.92
2019-03-22T15:02:41.592Z,44.98
2019-03-22T15:05:10.203Z,45.25
2019-03-22T15:07:38.506Z,43.42
2019-03-22T15:10:11.897Z,44.30
2019-03-22T15:12:41.312Z,43.55
2019-03-22T15:15:24.991Z,40.85
2019-03-22T15:18:07.320Z,43.25
2019-03-22T15:20:54.215Z,42.40
2019-03-22T15:23:40.654Z,50.92
2019-03-22T15:26:10.927Z,44.15
2019-03-22T15:28:41.077Z,81.95
2019-03-22T15:33:57.036Z,46.20
2019-03-22T15:36:43.549Z,45.10
2019-03-22T15:39:25.811Z,45.85
2019-03-22T15:41:54.526Z,44.90
2019-03-22T15:46:51.579Z,64.30
2019-03-22T15:49:20.009Z,163.32
2019-03-22T15:51:48.892Z,79.85
2019-03-22T15:54:17.428Z,78.07
2019-03-22T15:56:46.200Z,83.10
2019-03-22T15:59:14.571Z,44.75
2019-03-22T16:01:42.939Z,269.65
2019-03-22T16:04:11.439Z,135.30
2019-03-22T16:06:40.487Z,70.40
2019-03-22T16:09:09.006Z,58.45
2019-03-22T16:11:37.589Z,72.10
2019-03-22T16:14:07.052Z,51.90
2019-03-22T16:16:35.952Z,52.20
2019-03-22T16:19:04.812Z,64.77
2019-03-22T16:21:33.213Z,64.62
2019-03-22T16:24:02.046Z,48.78
2019-03-22T16:26:30.577Z,51.70
2019-03-22T16:28:59.175Z,52.73
2019-03-22T16:31:27.820Z,83.58
2019-03-22T16:33:57.826Z,63.68
2019-03-22T16:36:29.281Z,71.37
2019-03-22T16:38:57.908Z,56.13
2019-03-22T16:41:26.468Z,51.48
2019-03-22T16:43:55.067Z,48.33
2019-03-22T16:46:23.673Z,47.80
2019-03-22T16:48:52.175Z,48.98
2019-03-22T16:51:20.517Z,45.03
2019-03-22T16:53:49.227Z,43.80
2019-03-22T16:56:17.645Z,44.93
2019-03-22T16:58:46.016Z,44.42
2019-03-22T17:01:14.339Z,44.30
2019-03-22T17:03:42.691Z,44.83
2019-03-22T17:06:11.038Z,44.63
2019-03-22T17:08:39.586Z,45.08
2019-03-22T17:11:08.032Z,45.58
2019-03-22T17:13:36.365Z,46.35
2019-03-22T17:16:05.609Z,47.27
2019-03-22T17:18:34.133Z,56.07
2019-03-22T17:21:02.642Z,53.63
2019-03-22T17:23:31.153Z,46.90
2019-03-22T17:25:59.634Z,48.13
2019-03-22T17:28:27.984Z,46.90
2019-03-22T17:30:56.566Z,50.00
2019-03-22T17:33:25.036Z,49.40
2019-03-22T17:35:53.722Z,46.98
2019-03-22T17:38:22.098Z,49.00
2019-03-22T17:40:51.201Z,49.03
2019-03-22T17:43:22.774Z,49.75
2019-03-22T17:45:51.470Z,49.48
2019-03-22T17:48:20.205Z,51.98
2019-03-22T17:50:48.594Z,51.68
2019-03-22T17:53:16.926Z,60.12
2019-03-22T17:55:45.602Z,52.50
2019-03-22T17:58:14.093Z,51.95
2019-03-22T18:00:43.021Z,52.33
2019-03-22T18:03:11.612Z,53.63
2019-03-22T18:05:40.327Z,55.00
2019-03-22T18:08:11.657Z,53.40
2019-03-22T18:10:40.056Z,54.18
2019-03-22T18:13:08.594Z,55.12
2019-03-22T18:15:37.000Z,55.63
2019-03-22T18:18:06.904Z,57.33
2019-03-22T18:20:35.361Z,60.63
2019-03-22T18:23:03.835Z,59.20
2019-03-22T18:25:32.305Z,61.60
2019-03-22T18:28:00.754Z,60.95
2019-03-22T18:30:29.116Z,60.63
2019-03-22T18:32:57.868Z,56.90
2019-03-22T18:35:26.740Z,59.55
2019-03-22T18:37:55.870Z,61.05
2019-03-22T18:40:24.679Z,65.03
2019-03-22T18:42:52.955Z,64.10
2019-03-22T18:45:21.454Z,69.00
2019-03-22T18:47:49.853Z,69.05
2019-03-22T18:50:18.205Z,68.00
2019-03-22T18:52:46.633Z,68.12
2019-03-22T18:55:14.996Z,70.85
2019-03-22T18:57:43.340Z,72.00
2019-03-22T19:00:15.844Z,73.35
2019-03-22T19:02:44.437Z,72.45
2019-03-22T19:05:13.690Z,72.65
2019-03-22T19:07:42.014Z,73.07
2019-03-22T19:10:14.689Z,73.55
2019-03-22T19:12:42.964Z,74.42
2019-03-22T19:15:12.382Z,70.87
2019-03-22T19:17:40.829Z,74.47
2019-03-22T19:20:14.137Z,72.72
2019-03-22T19:22:42.577Z,75.12
2019-03-22T19:25:10.930Z,78.85
2019-03-22T19:27:39.629Z,75.30
2019-03-22T19:30:13.424Z,77.30
2019-03-22T19:32:41.947Z,73.37
2019-03-22T19:35:11.109Z,74.53
2019-03-22T19:37:39.537Z,75.10
2019-03-22T19:40:12.696Z,77.80
2019-03-22T19:42:41.165Z,76.97
2019-03-22T19:45:11.161Z,77.47
2019-03-22T19:50:11.555Z,75.25
2019-03-22T19:52:39.995Z,79.27
2019-03-22T19:55:09.311Z,80.30
2019-03-22T19:57:37.928Z,81.60
2019-03-22T20:00:09.331Z,81.75
2019-03-22T20:02:37.641Z,82.40
2019-03-22T20:05:07.196Z,81.87
2019-03-22T20:07:35.639Z,79.72
2019-03-22T20:10:07.297Z,84.52
2019-03-22T20:12:35.814Z,84.77
2019-03-22T20:15:05.728Z,85.15
2019-03-22T20:17:34.218Z,85.47
2019-03-22T20:20:02.835Z,86.15
2019-03-22T20:22:32.179Z,82.72
2019-03-22T20:25:00.687Z,84.28
2019-03-22T20:27:29.186Z,78.87
2019-03-22T20:29:57.546Z,82.22
2019-03-22T20:32:26.108Z,85.03
2019-03-22T20:34:54.932Z,83.85
2019-03-22T20:37:23.355Z,83.35
2019-03-22T20:39:51.645Z,81.10
2019-03-22T20:42:20.090Z,82.53
2019-03-22T20:44:48.808Z,82.27
2019-03-22T20:47:17.228Z,89.47
2019-03-22T20:49:45.634Z,87.88
2019-03-22T20:52:14.151Z,89.15
2019-03-22T20:54:42.482Z,89.03
2019-03-22T20:57:11.334Z,88.87
2019-03-22T20:59:39.950Z,88.95
2019-03-22T21:02:09.360Z,89.62
2019-03-22T21:04:38.144Z,95.97
2019-03-22T21:07:06.769Z,94.03
2019-03-22T21:09:35.347Z,96.63
2019-03-22T21:12:04.034Z,97.02
2019-03-22T21:14:33.207Z,97.82
2019-03-22T21:17:10.506Z,101.87
2019-03-22T21:19:38.852Z,105.27
2019-03-22T21:22:07.455Z,107.17
2019-03-22T21:24:37.632Z,106.17
2019-03-22T21:27:15.231Z,103.45
2019-03-22T21:29:44.174Z,103.07
2019-03-22T21:34:35.255Z,102.05
2019-03-22T21:37:03.697Z,104.25
2019-03-22T21:39:32.446Z,104.70
2019-03-22T21:42:01.033Z,109.45
2019-03-22T21:44:29.735Z,110.72
2019-03-22T21:46:58.300Z,108.90
2019-03-22T21:49:26.644Z,116.25
2019-03-22T21:51:55.651Z,113.17
2019-03-22T21:54:24.728Z,105.65
2019-03-22T21:56:53.951Z,117.15
2019-03-22T21:59:22.810Z,118.77
2019-03-22T22:01:51.583Z,119.13
2019-03-22T22:04:20.142Z,116.03
2019-03-22T22:06:48.922Z,108.12
2019-03-22T22:09:17.754Z,97.78
2019-03-22T22:11:46.480Z,95.12
2019-03-22T22:14:14.917Z,100.45
2019-03-22T22:16:43.320Z,103.15
2019-03-22T22:19:12.004Z,102.85
2019-03-22T22:21:40.741Z,97.55
2019-03-22T22:24:09.427Z,91.85
2019-03-22T22:26:38.881Z,98.20
2019-03-22T22:29:07.213Z,105.10
2019-03-22T22:31:42.316Z,95.07
2019-03-22T22:34:11.212Z,99.83
2019-03-22T22:36:39.896Z,96.02
2019-03-22T22:39:08.934Z,117.87
2019-03-22T22:41:37.519Z,109.03
2019-03-22T22:44:05.975Z,96.10
2019-03-22T22:46:34.889Z,115.45
2019-03-22T22:49:03.543Z,130.50
2019-03-22T22:51:32.758Z,133.82
2019-03-22T22:54:01.659Z,128.90
2019-03-22T22:56:30.288Z,149.87
2019-03-22T22:58:59.321Z,148.05
2019-03-22T23:01:28.253Z,108.13
2019-03-22T23:03:57.686Z,120.02
2019-03-22T23:06:27.423Z,104.17
2019-03-22T23:08:56.546Z,121.82
2019-03-22T23:11:25.198Z,140.95
2019-03-22T23:13:54.439Z,136.20
2019-03-22T23:16:23.488Z,156.93
2019-03-22T23:18:52.546Z,168.37
2019-03-22T23:21:21.247Z,189.37
2019-03-22T23:23:52.068Z,223.25
2019-03-22T23:26:21.294Z,129.65
2019-03-22T23:28:52.330Z,194.37
2019-03-22T23:31:21.667Z,232.45
2019-03-22T23:33:51.440Z,197.30
2019-03-22T23:36:21.864Z,212.08
2019-03-22T23:38:52.411Z,142.35
2019-03-22T23:41:21.825Z,113.88
2019-03-22T23:43:51.155Z,126.40
2019-03-22T23:46:21.446Z,128.05
2019-03-22T23:48:51.379Z,184.72
2019-03-22T23:51:20.828Z,201.50
2019-03-22T23:53:51.114Z,167.15
2019-03-22T23:56:20.472Z,112.35
2019-03-22T23:58:49.354Z,94.47
